Time;durP1;ratioP1;P1;durP2;ratioP2;P2;SDS_P1;SDS_P2;PMS_P1;PMS_P2;Temp;Humidity;BMP_temperature;BMP_pressure;BME280_temperature;BME280_humidity;BME280_pressure;Samples;Min_cycle;Max_cycle;Signal;HPM_P1;HPM_P2
2022/06/23 00:04:24;;;;;;;4.32;1.98;;;;;20.30;100581.00;;;;10361999;28;20265;-76
2022/06/23 00:09:44;;;;;;;4.22;1.77;;;;;20.30;100588.00;;;;10351086;28;20193;-76
2022/06/23 00:14:49;;;;;;;2.30;2.10;;;;;20.20;100596.00;;;;10398501;28;20199;-76
2022/06/23 00:19:51;;;;;;;4.65;1.83;;;;;20.00;100588.00;;;;10383203;28;20215;-76
2022/06/23 00:24:56;;;;;;;2.85;1.90;;;;;19.90;100571.00;;;;10397670;28;20670;-75
2022/06/23 00:30:02;;;;;;;4.70;2.22;;;;;19.70;100571.00;;;;10358307;28;20184;-76
2022/06/23 00:35:05;;;;;;;4.05;1.90;;;;;19.50;100577.00;;;;10320260;28;20566;-76
2022/06/23 00:40:12;;;;;;;5.65;2.10;;;;;19.30;100576.00;;;;10362010;28;20637;-75
2022/06/23 00:45:39;;;;;;;4.22;1.98;;;;;19.20;100566.00;;;;10397422;28;20190;-76
2022/06/23 00:50:49;;;;;;;3.95;2.00;;;;;19.10;100576.00;;;;10415393;28;20194;-76
2022/06/23 00:56:07;;;;;;;3.78;2.00;;;;;19.00;100578.00;;;;10380996;28;20665;-75
2022/06/23 01:01:15;;;;;;;5.25;1.77;;;;;18.90;100586.00;;;;10396728;28;20210;-76
2022/06/23 01:06:35;;;;;;;3.83;2.00;;;;;18.80;100589.00;;;;10426072;28;20641;-76
2022/06/23 01:12:07;;;;;;;3.05;2.13;;;;;18.70;100589.00;;;;10433027;28;20191;-77
2022/06/23 01:17:16;;;;;;;3.85;2.40;;;;;18.70;100590.00;;;;10367806;28;20696;-75
2022/06/23 01:22:28;;;;;;;4.45;2.05;;;;;18.70;100580.00;;;;10414238;28;20198;-76
2022/06/23 01:27:58;;;;;;;4.65;2.03;;;;;18.60;100587.00;;;;10378369;28;20233;-76
2022/06/23 01:33:04;;;;;;;4.32;1.92;;;;;18.60;100589.00;;;;10363419;28;20190;-76
2022/06/23 01:38:20;;;;;;;4.10;2.00;;;;;18.60;100583.00;;;;10380203;28;20221;-76
2022/06/23 01:43:47;;;;;;;3.22;1.75;;;;;18.50;100587.00;;;;10379244;28;20836;-76
2022/06/23 01:48:56;;;;;;;1.92;1.83;;;;;18.50;100587.00;;;;10396049;28;20205;-76
2022/06/23 01:54:22;;;;;;;3.53;1.98;;;;;18.60;100576.00;;;;10378916;28;20191;-76
2022/06/23 01:59:34;;;;;;;4.07;1.92;;;;;18.70;100570.00;;;;10411279;28;20268;-77
2022/06/23 02:04:54;;;;;;;5.53;2.38;;;;;18.70;100573.00;;;;10347504;28;20285;-76
2022/06/23 02:10:12;;;;;;;2.00;1.85;;;;;18.70;100566.00;;;;10370417;28;20201;-76
2022/06/23 02:15:25;;;;;;;2.50;2.05;;;;;18.70;100567.00;;;;10378782;28;20190;-76
2022/06/23 02:20:37;;;;;;;5.82;1.88;;;;;18.70;100554.00;;;;10378835;28;20597;-76
2022/06/23 02:25:49;;;;;;;3.63;2.15;;;;;18.50;100545.00;;;;10362144;28;20203;-75
2022/06/23 02:30:59;;;;;;;5.10;2.47;;;;;18.40;100539.00;;;;10412675;28;20187;-76
2022/06/23 02:36:18;;;;;;;3.13;1.80;;;;;18.10;100545.00;;;;10329722;28;20216;-76
2022/06/23 02:41:27;;;;;;;2.42;2.13;;;;;17.80;100521.00;;;;10370976;28;20202;-75
2022/06/23 02:46:44;;;;;;;3.30;2.38;;;;;17.60;100525.00;;;;10418424;28;20676;-76
2022/06/23 02:52:14;;;;;;;3.03;2.10;;;;;17.40;100525.00;;;;10391946;28;20197;-76
2022/06/23 02:57:25;;;;;;;3.22;2.58;;;;;17.40;100524.00;;;;10390818;28;20280;-75
2022/06/23 03:02:51;;;;;;;3.83;2.37;;;;;17.40;100525.00;;;;10359094;28;20245;-77
2022/06/23 03:08:24;;;;;;;4.80;2.15;;;;;17.40;100522.00;;;;10400076;28;20197;-76
2022/06/23 03:13:42;;;;;;;3.15;2.08;;;;;17.40;100522.00;;;;10376003;28;20199;-76
2022/06/23 03:19:00;;;;;;;3.58;2.20;;;;;17.30;100516.00;;;;10383829;28;20214;-76
2022/06/23 03:24:08;;;;;;;6.87;2.70;;;;;17.30;100524.00;;;;10383843;28;20195;-76
2022/06/23 03:29:24;;;;;;;4.07;2.57;;;;;17.40;100512.00;;;;10398696;28;20198;-76
2022/06/23 03:34:44;;;;;;;2.83;2.50;;;;;17.40;100504.00;;;;10383302;28;20711;-76
2022/06/23 03:45:13;;;;;;;3.30;2.87;;;;;17.30;100506.00;;;;10367484;28;20226;-76
2022/06/23 03:50:21;;;;;;;7.22;2.80;;;;;17.30;100501.00;;;;10416244;28;20189;-76
2022/06/23 03:55:31;;;;;;;3.65;2.33;;;;;17.30;100506.00;;;;10382438;28;20278;-76
2022/06/23 04:00:58;;;;;;;2.67;2.47;;;;;17.30;100515.00;;;;10397236;28;20227;-76
2022/06/23 04:06:21;;;;;;;5.17;2.70;;;;;17.40;100529.00;;;;10374141;28;20191;-77
2022/06/23 04:11:45;;;;;;;3.38;2.63;;;;;17.40;100533.00;;;;10348839;28;20605;-76
2022/06/23 04:16:54;;;;;;;6.03;2.97;;;;;17.50;100531.00;;;;10396223;28;20289;-76
2022/06/23 04:22:13;;;;;;;8.67;2.73;;;;;17.80;100530.00;;;;10364899;28;20643;-76
2022/06/23 04:27:21;;;;;;;3.58;2.58;;;;;18.00;100533.00;;;;10380912;28;20191;-76
2022/06/23 04:32:30;;;;;;;3.30;2.53;;;;;18.10;100530.00;;;;10378476;28;20207;-76
2022/06/23 04:37:59;;;;;;;6.35;3.42;;;;;18.20;100538.00;;;;10392953;28;20233;-76
2022/06/23 04:43:13;;;;;;;7.50;3.13;;;;;18.40;100523.00;;;;10365211;28;20233;-76
2022/06/23 04:48:22;;;;;;;5.20;2.90;;;;;18.50;100526.00;;;;10378987;28;20600;-76
2022/06/23 04:54:02;;;;;;;3.38;3.08;;;;;18.70;100533.00;;;;10395111;28;20650;-76
2022/06/23 04:59:32;;;;;;;4.72;2.85;;;;;18.90;100538.00;;;;10396083;28;20222;-76
2022/06/23 05:04:40;;;;;;;3.95;3.05;;;;;19.20;100532.00;;;;10387942;28;20225;-76
2022/06/23 05:09:43;;;;;;;3.53;3.20;;;;;19.60;100533.00;;;;10395496;28;20191;-76
2022/06/23 05:14:57;;;;;;;4.40;3.10;;;;;20.10;100533.00;;;;10396011;28;20222;-76
2022/06/23 05:20:04;;;;;;;5.57;3.13;;;;;20.60;100531.00;;;;10404453;28;20254;-76
2022/06/23 05:25:15;;;;;;;8.15;3.47;;;;;21.00;100542.00;;;;10355609;28;20250;-76
2022/06/23 05:30:34;;;;;;;5.03;3.28;;;;;21.40;100546.00;;;;10324198;28;20184;-76
2022/06/23 05:35:42;;;;;;;6.60;3.40;;;;;21.90;100554.00;;;;10394411;28;20195;-77
2022/06/23 05:40:53;;;;;;;12.20;3.97;;;;;22.40;100549.00;;;;10355764;28;20314;-76
2022/06/23 05:45:58;;;;;;;4.75;3.40;;;;;22.80;100557.00;;;;10339145;28;20215;-76
2022/06/23 05:51:10;;;;;;;7.28;3.92;;;;;23.20;100557.00;;;;10372746;28;20230;-75
2022/06/23 05:56:20;;;;;;;8.65;4.35;;;;;23.70;100568.00;;;;10351741;28;20223;-76
2022/06/23 06:01:34;;;;;;;10.25;4.70;;;;;24.20;100564.00;;;;10386147;28;20277;-76
2022/06/23 06:06:37;;;;;;;8.88;4.65;;;;;24.70;100566.00;;;;10387771;28;20194;-75
2022/06/23 06:11:43;;;;;;;7.65;4.68;;;;;25.20;100550.00;;;;10411174;28;20199;-76
2022/06/23 06:16:46;;;;;;;11.40;6.10;;;;;25.70;100556.00;;;;10308905;28;20211;-76
2022/06/23 06:21:53;;;;;;;7.75;5.43;;;;;26.20;100562.00;;;;10402801;28;20198;-76
2022/06/23 06:27:02;;;;;;;9.95;6.05;;;;;26.50;100557.00;;;;10389653;28;20196;-76
2022/06/23 06:32:16;;;;;;;9.30;5.55;;;;;26.70;100550.00;;;;10379196;28;20198;-76
2022/06/23 06:37:24;;;;;;;8.93;5.47;;;;;27.00;100549.00;;;;10402585;28;20576;-76
2022/06/23 06:42:41;;;;;;;7.45;5.28;;;;;27.30;100564.00;;;;10403214;28;20191;-76
2022/06/23 06:47:45;;;;;;;7.82;4.22;;;;;27.60;100569.00;;;;10402826;28;20190;-76
2022/06/23 06:52:49;;;;;;;8.75;4.57;;;;;28.10;100567.00;;;;10418776;28;20226;-76
2022/06/23 06:58:02;;;;;;;10.40;5.15;;;;;28.40;100580.00;;;;10390066;28;20272;-76
2022/06/23 07:03:08;;;;;;;10.35;4.85;;;;;29.00;100576.00;;;;10440345;28;20273;-77
2022/06/23 07:08:18;;;;;;;8.35;4.57;;;;;29.50;100575.00;;;;10398172;28;20191;-77
2022/06/23 07:13:34;;;;;;;10.65;4.35;;;;;29.80;100588.00;;;;10385976;28;20199;-77
2022/06/23 07:18:43;;;;;;;13.60;4.85;;;;;30.30;100590.00;;;;10368204;28;20214;-78
2022/06/23 07:23:58;;;;;;;7.57;4.68;;;;;30.80;100597.00;;;;10377560;28;20936;-77
2022/06/23 07:29:15;;;;;;;9.38;5.53;;;;;31.10;100599.00;;;;10382303;28;20671;-77
2022/06/23 07:34:19;;;;;;;6.72;5.05;;;;;31.00;100601.00;;;;10411422;28;20245;-77
2022/06/23 07:39:27;;;;;;;10.75;5.53;;;;;30.50;100611.00;;;;10395963;28;20715;-77
2022/06/23 07:44:43;;;;;;;9.15;5.75;;;;;30.20;100614.00;;;;10369724;28;20270;-77
2022/06/23 07:49:45;;;;;;;10.80;5.38;;;;;30.20;100604.00;;;;10361593;28;20261;-76
2022/06/23 07:54:50;;;;;;;11.35;5.28;;;;;31.30;100607.00;;;;10396919;28;20274;-77
2022/06/23 07:59:58;;;;;;;8.32;5.18;;;;;32.10;100609.00;;;;10377062;28;20356;-77
2022/06/23 08:05:03;;;;;;;8.82;5.70;;;;;33.10;100612.00;;;;10387139;28;20217;-77
2022/06/23 08:10:13;;;;;;;9.38;5.18;;;;;31.90;100635.00;;;;10379823;28;20270;-77
2022/06/23 08:20:49;;;;;;;6.22;4.80;;;;;31.70;100633.00;;;;10384703;28;20215;-77
2022/06/23 08:25:52;;;;;;;6.35;4.57;;;;;30.40;100640.00;;;;10379803;28;20649;-77
2022/06/23 08:30:54;;;;;;;5.85;4.60;;;;;31.40;100621.00;;;;10414684;28;20187;-76
2022/06/23 08:36:01;;;;;;;5.20;4.78;;;;;31.50;100616.00;;;;10375028;28;20195;-77
2022/06/23 08:41:28;;;;;;;6.95;4.68;;;;;32.40;100622.00;;;;10377456;28;20272;-77
2022/06/23 08:47:04;;;;;;;6.22;3.88;;;;;34.10;100625.00;;;;10375377;28;20277;-76
2022/06/23 08:52:31;;;;;;;7.85;4.15;;;;;34.10;100619.00;;;;10357264;28;20684;-76
2022/06/23 08:58:08;;;;;;;8.70;4.60;;;;;33.20;100617.00;;;;10382087;28;20219;-77
2022/06/23 09:03:25;;;;;;;7.32;4.40;;;;;32.80;100613.00;;;;10348839;28;20192;-76
2022/06/23 09:08:50;;;;;;;5.68;4.40;;;;;33.80;100603.00;;;;10412453;28;20237;-76
2022/06/23 09:14:03;;;;;;;4.45;3.90;;;;;35.00;100598.00;;;;10395998;28;20199;-77
2022/06/23 09:19:36;;;;;;;5.57;4.10;;;;;34.60;100599.00;;;;10393094;28;20207;-77
2022/06/23 09:25:14;;;;;;;5.28;3.80;;;;;35.40;100583.00;;;;10379213;28;20198;-77
2022/06/23 09:30:42;;;;;;;7.30;3.75;;;;;36.30;100582.00;;;;10353322;28;20653;-77
2022/06/23 09:36:08;;;;;;;4.75;3.42;;;;;36.20;100583.00;;;;10361944;28;20200;-77
2022/06/23 09:41:19;;;;;;;7.72;3.42;;;;;35.40;100578.00;;;;10395004;28;20615;-78
2022/06/23 09:46:36;;;;;;;8.40;3.58;;;;;36.40;100572.00;;;;10366800;28;20596;-77
2022/06/23 09:51:51;;;;;;;5.85;3.50;;;;;37.00;100564.00;;;;10378602;28;20190;-77
2022/06/23 09:57:02;;;;;;;6.68;4.13;;;;;35.50;100583.00;;;;10366255;28;20211;-78
2022/06/23 10:02:12;;;;;;;7.95;3.55;;;;;33.60;100578.00;;;;10410419;28;20219;-77
2022/06/23 10:07:27;;;;;;;9.23;4.20;;;;;32.70;100582.00;;;;10386683;28;20191;-77
2022/06/23 10:13:10;;;;;;;8.82;3.75;;;;;32.80;100577.00;;;;10372999;28;20195;-77
2022/06/23 10:18:31;;;;;;;7.38;3.80;;;;;32.60;100581.00;;;;10377199;28;20628;-76
2022/06/23 10:24:08;;;;;;;10.75;4.00;;;;;32.90;100577.00;;;;10374709;28;20727;-77
2022/06/23 10:29:42;;;;;;;8.10;3.28;;;;;34.20;100559.00;;;;10352852;28;20215;-77
2022/06/23 10:34:58;;;;;;;3.92;2.92;;;;;35.10;100559.00;;;;10364492;28;20210;-77
2022/06/23 10:40:12;;;;;;;6.45;2.70;;;;;36.30;100542.00;;;;10374362;28;20222;-76
2022/06/23 10:45:49;;;;;;;6.10;2.70;;;;;36.80;100545.00;;;;10393498;28;20191;-77
2022/06/23 10:51:24;;;;;;;6.20;2.28;;;;;37.10;100550.00;;;;10370594;28;20641;-76
2022/06/23 10:57:07;;;;;;;5.47;2.45;;;;;37.40;100557.00;;;;10399741;28;20290;-77
2022/06/23 11:02:51;;;;;;;5.95;2.67;;;;;36.40;100538.00;;;;10374739;28;20210;-78
2022/06/23 11:08:20;;;;;;;5.13;2.63;;;;;36.30;100543.00;;;;10380525;28;20225;-77
2022/06/23 11:13:35;;;;;;;4.20;2.72;;;;;37.20;100537.00;;;;10395258;28;20182;-78
2022/06/23 11:18:54;;;;;;;6.28;2.55;;;;;38.20;100534.00;;;;10409038;28;20732;-78
2022/06/23 11:24:41;;;;;;;3.97;2.00;;;;;38.50;100540.00;;;;10382068;28;20246;-78
2022/06/23 11:29:52;;;;;;;7.82;2.85;;;;;38.60;100533.00;;;;10359553;28;20203;-77
2022/06/23 11:35:19;;;;;;;6.18;2.60;;;;;38.60;100534.00;;;;10383889;28;20199;-77
2022/06/23 11:40:45;;;;;;;6.40;2.60;;;;;39.10;100538.00;;;;10403179;28;20253;-78
2022/06/23 11:45:55;;;;;;;6.70;2.65;;;;;38.30;100539.00;;;;10398249;28;20195;-77
2022/06/23 11:51:06;;;;;;;7.90;2.67;;;;;36.60;100531.00;;;;10389104;28;20194;-77
2022/06/23 11:56:13;;;;;;;7.85;2.50;;;;;36.80;100527.00;;;;10401757;28;20215;-77
2022/06/23 12:01:21;;;;;;;5.15;2.38;;;;;36.00;100523.00;;;;10394786;28;20297;-77
2022/06/23 12:06:32;;;;;;;4.57;2.55;;;;;37.60;100516.00;;;;10387944;28;20253;-77
2022/06/23 12:11:37;;;;;;;5.78;2.65;;;;;36.70;100517.00;;;;10363006;28;20218;-77
2022/06/23 12:16:59;;;;;;;6.25;2.30;;;;;36.70;100514.00;;;;10390954;28;20206;-78
2022/06/23 12:22:15;;;;;;;5.03;2.50;;;;;35.90;100509.00;;;;10374608;28;20199;-77
2022/06/23 12:27:38;;;;;;;6.65;2.40;;;;;36.30;100508.00;;;;10408040;28;20194;-78
2022/06/23 12:32:51;;;;;;;5.72;2.40;;;;;37.20;100512.00;;;;10387022;28;20655;-77
2022/06/23 12:38:17;;;;;;;4.32;2.75;;;;;37.70;100496.00;;;;10350810;28;20609;-78
2022/06/23 12:43:37;;;;;;;2.63;2.20;;;;;38.20;100500.00;;;;10416472;28;20672;-78
2022/06/23 12:49:22;;;;;;;5.85;2.38;;;;;38.20;100487.00;;;;10396983;28;20187;-78
2022/06/23 12:54:48;;;;;;;5.22;2.38;;;;;37.90;100488.00;;;;10319586;28;20203;-77
2022/06/23 13:00:14;;;;;;;3.75;2.03;;;;;37.00;100481.00;;;;10358130;28;20223;-78
2022/06/23 13:05:30;;;;;;;4.13;2.28;;;;;37.30;100480.00;;;;10346080;28;20561;-77
2022/06/23 13:10:45;;;;;;;5.47;2.22;;;;;37.70;100476.00;;;;10387702;28;20551;-78
2022/06/23 13:15:47;;;;;;;4.50;2.40;;;;;38.00;100472.00;;;;10395361;28;20209;-78
2022/06/23 13:21:05;;;;;;;3.55;2.00;;;;;38.40;100482.00;;;;10386131;28;20291;-78
2022/06/23 13:26:34;;;;;;;2.42;1.90;;;;;37.60;100480.00;;;;10392738;28;20833;-78
2022/06/23 13:31:46;;;;;;;3.67;2.08;;;;;37.40;100465.00;;;;10353779;28;20219;-78
2022/06/23 13:37:17;;;;;;;4.82;2.53;;;;;37.30;100465.00;;;;10391152;28;20201;-78
2022/06/23 13:42:25;;;;;;;2.75;2.20;;;;;37.20;100458.00;;;;10389128;28;20267;-79
2022/06/23 13:47:37;;;;;;;5.07;2.20;;;;;37.10;100457.00;;;;10398460;28;20237;-78
2022/06/23 13:52:42;;;;;;;4.78;2.70;;;;;37.40;100453.00;;;;10371679;28;20194;-79
2022/06/23 13:57:54;;;;;;;6.22;2.47;;;;;38.00;100446.00;;;;10389743;28;20642;-78
2022/06/23 14:03:40;;;;;;;3.40;2.10;;;;;38.70;100450.00;;;;10392428;28;20205;-78
2022/06/23 14:08:51;;;;;;;3.63;2.20;;;;;38.70;100445.00;;;;10255436;28;20612;-79
2022/06/23 14:14:19;;;;;;;3.75;2.58;;;;;39.70;100441.00;;;;10361875;28;20206;-79
2022/06/23 14:19:27;;;;;;;6.10;2.30;;;;;41.30;100433.00;;;;10392625;28;20238;-78
2022/06/23 14:24:42;;;;;;;3.88;2.47;;;;;42.00;100440.00;;;;10380303;28;20206;-79
2022/06/23 14:29:50;;;;;;;4.60;2.47;;;;;43.00;100426.00;;;;10384572;28;20190;-79
2022/06/23 14:34:59;;;;;;;2.60;2.30;;;;;43.80;100428.00;;;;10417159;28;20218;-78
2022/06/23 14:40:05;;;;;;;5.72;2.60;;;;;44.30;100420.00;;;;10382256;28;20229;-79
2022/06/23 14:45:29;;;;;;;4.82;2.17;;;;;44.30;100425.00;;;;10374402;28;20214;-79
2022/06/23 14:50:37;;;;;;;7.45;2.20;;;;;44.60;100421.00;;;;10357242;28;20210;-79
2022/06/23 14:55:50;;;;;;;4.68;2.50;;;;;44.10;100424.00;;;;10381495;28;20645;-79
2022/06/23 15:01:30;;;;;;;2.97;1.95;;;;;43.70;100415.00;;;;10369938;28;20665;-78
2022/06/23 15:06:32;;;;;;;2.65;2.25;;;;;44.50;100412.00;;;;10407616;28;20183;-78
2022/06/23 15:12:03;;;;;;;3.25;2.00;;;;;44.50;100407.00;;;;10382159;28;20215;-79
2022/06/23 15:17:15;;;;;;;3.72;2.10;;;;;44.60;100408.00;;;;10367207;28;20187;-79
2022/06/23 15:28:18;;;;;;;4.05;1.98;;;;;45.00;100403.00;;;;10399971;28;20198;-79
2022/06/23 15:33:42;;;;;;;4.18;1.85;;;;;44.90;100388.00;;;;10371476;28;20202;-79
2022/06/23 15:38:51;;;;;;;3.50;1.80;;;;;42.20;100394.00;;;;10368582;28;20203;-78
2022/06/23 15:44:08;;;;;;;2.13;1.50;;;;;37.60;100400.00;;;;10397776;28;20261;-79
2022/06/23 15:49:24;;;;;;;2.33;1.52;;;;;38.30;100381.00;;;;10398099;28;20753;-79
2022/06/23 15:54:42;;;;;;;1.80;1.58;;;;;35.80;100380.00;;;;10372243;28;20214;-80
2022/06/23 15:59:57;;;;;;;2.33;1.35;;;;;33.90;100370.00;;;;10382421;28;20587;-79
2022/06/23 16:05:09;;;;;;;2.85;1.70;;;;;33.40;100358.00;;;;10440030;28;20185;-78
2022/06/23 16:10:29;;;;;;;2.17;1.40;;;;;32.70;100347.00;;;;10400338;28;20213;-79
2022/06/23 16:15:38;;;;;;;2.05;1.30;;;;;32.20;100339.00;;;;10361754;28;20640;-78
2022/06/23 16:20:54;;;;;;;3.42;1.30;;;;;31.70;100346.00;;;;10387892;28;20251;-78
2022/06/23 16:26:03;;;;;;;2.83;1.45;;;;;31.40;100335.00;;;;10364375;28;20206;-78
2022/06/23 16:31:21;;;;;;;2.63;1.65;;;;;31.00;100325.00;;;;10389284;28;20385;-78
2022/06/23 16:36:30;;;;;;;2.40;1.35;;;;;30.90;100319.00;;;;10396622;28;20600;-78
2022/06/23 16:42:05;;;;;;;3.72;1.13;;;;;30.70;100319.00;;;;10388326;28;20183;-78
2022/06/23 16:47:46;;;;;;;6.93;1.25;;;;;30.60;100323.00;;;;10403759;28;20253;-78
2022/06/23 16:53:02;;;;;;;2.05;1.27;;;;;30.80;100322.00;;;;10303153;28;20241;-78
2022/06/23 16:58:23;;;;;;;1.80;1.20;;;;;31.00;100325.00;;;;10406013;28;20229;-78
2022/06/23 17:03:34;;;;;;;4.95;1.52;;;;;31.10;100333.00;;;;10397153;28;20195;-79
2022/06/23 17:08:42;;;;;;;3.35;1.30;;;;;31.10;100335.00;;;;10380362;28;20206;-79
2022/06/23 17:13:48;;;;;;;2.20;1.60;;;;;31.50;100333.00;;;;10379636;28;20221;-78
2022/06/23 17:19:05;;;;;;;5.88;1.70;;;;;31.70;100324.00;;;;10393827;28;20191;-78
2022/06/23 17:24:24;;;;;;;6.72;1.63;;;;;32.00;100324.00;;;;10374151;28;20214;-78
2022/06/23 17:29:32;;;;;;;3.75;1.40;;;;;31.70;100316.00;;;;10381391;28;20663;-79
2022/06/23 17:34:48;;;;;;;2.53;1.50;;;;;31.60;100315.00;;;;10400515;28;20622;-78
2022/06/23 17:46:10;;;;;;;2.65;1.60;;;;;30.50;100335.00;;;;10410163;28;20209;-79
2022/06/23 17:51:18;;;;;;;3.92;1.67;;;;;30.00;100336.00;;;;10340319;28;20247;-78
2022/06/23 17:56:20;;;;;;;3.47;1.83;;;;;29.90;100331.00;;;;10344805;28;20225;-78
2022/06/23 18:01:22;;;;;;;2.60;1.40;;;;;29.70;100331.00;;;;10405402;28;20219;-78
2022/06/23 18:06:29;;;;;;;2.30;1.30;;;;;29.60;100332.00;;;;10405987;28;20209;-78
2022/06/23 18:11:44;;;;;;;2.85;1.45;;;;;29.50;100331.00;;;;10424614;28;20218;-79
2022/06/23 18:16:54;;;;;;;2.60;1.63;;;;;29.40;100320.00;;;;10423597;28;20191;-79
2022/06/23 18:22:10;;;;;;;3.95;1.45;;;;;29.40;100330.00;;;;10388170;28;20214;-78
2022/06/23 18:27:27;;;;;;;2.95;1.50;;;;;29.40;100308.00;;;;10353282;28;20213;-79
2022/06/23 18:32:42;;;;;;;2.95;1.60;;;;;29.50;100315.00;;;;10390794;28;20214;-78
2022/06/23 18:38:01;;;;;;;2.30;1.77;;;;;29.40;100315.00;;;;10418402;28;20206;-79
2022/06/23 18:43:07;;;;;;;1.83;1.40;;;;;29.30;100325.00;;;;10371289;28;20190;-79
2022/06/23 18:48:36;;;;;;;3.30;1.83;;;;;29.10;100330.00;;;;10371051;28;20271;-79
2022/06/23 18:53:42;;;;;;;3.53;1.60;;;;;28.80;100332.00;;;;10376927;28;20234;-79
2022/06/23 18:59:37;;;;;;;4.97;1.50;;;;;28.50;100319.00;;;;10388806;28;20272;-79
2022/06/23 19:05:00;;;;;;;4.75;1.58;;;;;28.30;100310.00;;;;10272067;28;20218;-79
2022/06/23 19:10:07;;;;;;;2.03;1.35;;;;;28.00;100319.00;;;;10375569;28;20318;-78
2022/06/23 19:15:20;;;;;;;3.08;1.80;;;;;28.10;100323.00;;;;10408792;28;20186;-79
2022/06/23 19:20:27;;;;;;;3.00;1.55;;;;;28.10;100319.00;;;;10370601;28;20199;-79
2022/06/23 19:26:06;;;;;;;3.90;1.42;;;;;27.90;100322.00;;;;10390547;28;20629;-79
2022/06/23 19:31:31;;;;;;;2.75;1.52;;;;;27.70;100324.00;;;;10417481;28;20261;-79
2022/06/23 19:36:32;;;;;;;4.50;1.80;;;;;27.50;100331.00;;;;10398871;28;20198;-79
2022/06/23 19:41:58;;;;;;;2.45;1.30;;;;;27.20;100319.00;;;;10383777;28;20621;-80
2022/06/23 19:47:03;;;;;;;2.70;1.38;;;;;26.90;100306.00;;;;10400238;28;20211;-79
2022/06/23 19:52:17;;;;;;;3.40;1.70;;;;;26.60;100317.00;;;;10379115;28;20218;-79
2022/06/23 19:57:46;;;;;;;2.67;1.60;;;;;26.30;100306.00;;;;10385639;28;20222;-79
2022/06/23 20:03:04;;;;;;;2.28;1.67;;;;;26.00;100306.00;;;;10368053;28;20218;-78
2022/06/23 20:08:19;;;;;;;3.08;1.88;;;;;25.80;100294.00;;;;10376520;28;20223;-78
2022/06/23 20:13:29;;;;;;;8.88;1.77;;;;;25.40;100290.00;;;;10412956;28;20639;-80
2022/06/23 20:18:50;;;;;;;6.65;1.77;;;;;25.20;100309.00;;;;10346015;28;20226;-79
2022/06/23 20:24:16;;;;;;;6.05;1.85;;;;;24.90;100300.00;;;;10377314;28;20289;-79
2022/06/23 20:29:52;;;;;;;3.72;1.80;;;;;24.60;100283.00;;;;10376431;28;20203;-79
2022/06/23 20:35:18;;;;;;;5.38;1.70;;;;;24.40;100285.00;;;;10416523;28;20194;-79
2022/06/23 20:40:44;;;;;;;6.18;1.95;;;;;24.20;100277.00;;;;10367235;28;20218;-79
2022/06/23 20:46:20;;;;;;;4.38;2.40;;;;;24.10;100277.00;;;;10386773;28;20194;-79
2022/06/23 20:51:33;;;;;;;6.43;1.95;;;;;24.00;100273.00;;;;10382755;28;20215;-79
2022/06/23 20:57:03;;;;;;;10.63;2.17;;;;;24.00;100265.00;;;;10382154;28;20225;-80
2022/06/23 21:02:11;;;;;;;9.30;2.35;;;;;23.90;100269.00;;;;10401564;28;20199;-79
2022/06/23 21:07:33;;;;;;;9.70;2.10;;;;;23.80;100283.00;;;;10382368;28;20198;-79
2022/06/23 21:12:59;;;;;;;7.03;2.10;;;;;23.70;100276.00;;;;10382648;28;20641;-79
2022/06/23 21:18:17;;;;;;;8.88;2.22;;;;;23.70;100277.00;;;;10383775;28;20281;-79
2022/06/23 21:23:41;;;;;;;4.07;2.03;;;;;23.70;100258.00;;;;10397502;28;20214;-80
2022/06/23 21:28:49;;;;;;;4.95;1.95;;;;;23.70;100256.00;;;;10363184;28;20273;-79
2022/06/23 21:33:58;;;;;;;4.75;2.28;;;;;23.70;100239.00;;;;10380533;28;20206;-79
2022/06/23 21:39:06;;;;;;;2.45;2.03;;;;;23.60;100260.00;;;;10414117;28;20194;-79
2022/06/23 21:44:14;;;;;;;5.80;2.30;;;;;23.50;100255.00;;;;10382794;28;20191;-79
2022/06/23 21:49:39;;;;;;;4.60;2.13;;;;;23.40;100250.00;;;;10380200;28;20270;-79
2022/06/23 21:54:49;;;;;;;3.80;2.15;;;;;23.40;100244.00;;;;10382614;28;20225;-79
2022/06/23 21:59:56;;;;;;;6.70;2.00;;;;;23.40;100225.00;;;;10397611;28;20229;-79
2022/06/23 22:05:17;;;;;;;7.57;2.00;;;;;23.40;100241.00;;;;10352263;28;20756;-79
2022/06/23 22:10:28;;;;;;;4.85;2.10;;;;;23.50;100255.00;;;;10396296;28;20224;-79
2022/06/23 22:15:36;;;;;;;4.80;2.00;;;;;23.60;100269.00;;;;10397680;28;20183;-80
2022/06/23 22:20:45;;;;;;;5.47;2.35;;;;;23.60;100272.00;;;;10380820;28;20213;-79
2022/06/23 22:26:06;;;;;;;10.68;2.20;;;;;23.60;100277.00;;;;10396542;28;20198;-79
2022/06/23 22:31:57;;;;;;;5.97;2.83;;;;;23.20;100302.00;;;;10379465;28;20590;-79
2022/06/23 22:37:11;;;;;;;7.85;3.33;;;;;22.20;100321.00;;;;10390075;28;20201;-81
2022/06/23 22:42:21;;;;;;;8.80;3.35;;;;;21.50;100341.00;;;;10377554;28;20256;-81
2022/06/23 22:47:29;;;;;;;10.95;3.60;;;;;21.00;100351.00;;;;10403638;28;20603;-82
2022/06/23 22:52:35;;;;;;;8.88;4.05;;;;;20.60;100382.00;;;;10396066;28;20273;-80
2022/06/23 22:57:37;;;;;;;19.58;6.07;;;;;20.20;100377.00;;;;10427931;28;20230;-79
2022/06/23 23:02:38;;;;;;;10.15;4.72;;;;;20.00;100372.00;;;;10384708;28;20553;-79
2022/06/23 23:07:56;;;;;;;6.90;4.38;;;;;19.80;100373.00;;;;10375379;28;20554;-79
2022/06/23 23:13:06;;;;;;;18.45;5.50;;;;;19.70;100370.00;;;;10402103;28;20183;-78
2022/06/23 23:18:08;;;;;;;8.63;5.30;;;;;19.70;100402.00;;;;10425570;28;20197;-80
2022/06/23 23:23:18;;;;;;;10.52;5.50;;;;;19.70;100417.00;;;;10397001;28;20210;-79
2022/06/23 23:28:25;;;;;;;9.27;5.28;;;;;19.70;100422.00;;;;10422981;28;20195;-79
2022/06/23 23:33:35;;;;;;;6.95;4.88;;;;;19.60;100439.00;;;;10386811;28;20230;-79
2022/06/23 23:38:37;;;;;;;9.65;5.35;;;;;19.60;100427.00;;;;10397333;28;20286;-78
2022/06/23 23:43:45;;;;;;;7.20;5.53;;;;;19.60;100413.00;;;;10414776;28;20203;-78
2022/06/23 23:48:51;;;;;;;9.45;5.53;;;;;19.50;100402.00;;;;10382376;28;20198;-78
2022/06/23 23:53:53;;;;;;;6.90;5.60;;;;;19.40;100398.00;;;;10340797;28;20183;-78
2022/06/23 23:58:59;;;;;;;7.38;5.90;;;;;19.40;100395.00;;;;10346508;28;20254;-77
